To NAV CANADA Home Page Login to a new session Search on AWWS site Feedback and Comments Disclaimer Vers la page française équivalente Tips FAQ What's new on the site To the Forecasts and Observations / NOTAM section To "File a Flight Plan" website Publications and other links Update of the User's profile FIC Telephone Numbers My Weather Data Folder Route Weather Data Regional Weather Data Local Weather Data To the Forecasts and Observations / NOTAM section
Request Generated 03/23/2017 at 00:10:21 UTC . Weather information available at that time is displayed.

METAR/TAF

CARTWRIGHT/NL    

METAR CWCA 230000Z 27009KT 15SM FEW200 M12/M22 A2992 RMK CS2 SLP134=
METAR CWCA 222300Z 29004KT 250V330 15SM FEW200 M11/M20 A2989 RMK CS2
SLP124=
METAR CWCA 222200Z 29004KT 260V330 15SM FEW200 M10/M21 A2985 RMK CI2
SLP112=

TAF CYCA 221938Z 2220/2308 ADVISORY OFFSITE 30012G22KT P6SM SKC
BECMG 2221/2223 28008KT
FM230300 28008KT P6SM BKN060
BECMG 2304/2306 VRB03KT
RMK NXT FCST BY 230200Z=
Your time UTC time
Weather data provided by Environment Canada and NAV CANADA